sensor_id;sensor_type;location;lat;lon;timestamp;P1;durP1;ratioP1;P2;durP2;ratioP2
20527;SDS011;23612;50.894;10.700;2023-12-20T00:01:59;1.90;;;0.98;;
20527;SDS011;23612;50.894;10.700;2023-12-20T00:04:25;0.70;;;0.32;;
20527;SDS011;23612;50.894;10.700;2023-12-20T00:06:50;0.22;;;0.22;;
20527;SDS011;23612;50.894;10.700;2023-12-20T00:09:17;0.80;;;0.50;;
20527;SDS011;23612;50.894;10.700;2023-12-20T00:11:42;3.28;;;0.90;;
20527;SDS011;23612;50.894;10.700;2023-12-20T00:14:08;2.45;;;0.90;;
20527;SDS011;23612;50.894;10.700;2023-12-20T00:16:33;1.95;;;0.95;;
20527;SDS011;23612;50.894;10.700;2023-12-20T00:18:59;2.53;;;1.10;;
20527;SDS011;23612;50.894;10.700;2023-12-20T00:21:24;3.65;;;1.33;;
20527;SDS011;23612;50.894;10.700;2023-12-20T00:23:50;2.40;;;1.45;;
20527;SDS011;23612;50.894;10.700;2023-12-20T00:26:15;0.57;;;0.50;;
20527;SDS011;23612;50.894;10.700;2023-12-20T00:28:40;5.05;;;1.55;;
20527;SDS011;23612;50.894;10.700;2023-12-20T00:31:07;1.65;;;0.60;;
20527;SDS011;23612;50.894;10.700;2023-12-20T00:33:33;1.95;;;0.80;;
20527;SDS011;23612;50.894;10.700;2023-12-20T00:35:58;0.80;;;0.65;;
20527;SDS011;23612;50.894;10.700;2023-12-20T00:38:24;1.80;;;0.60;;
20527;SDS011;23612;50.894;10.700;2023-12-20T00:40:49;0.52;;;0.40;;
20527;SDS011;23612;50.894;10.700;2023-12-20T00:43:15;0.30;;;0.30;;
20527;SDS011;23612;50.894;10.700;2023-12-20T00:45:40;0.75;;;0.47;;
20527;SDS011;23612;50.894;10.700;2023-12-20T00:48:06;0.30;;;0.30;;
20527;SDS011;23612;50.894;10.700;2023-12-20T00:50:32;0.30;;;0.30;;
20527;SDS011;23612;50.894;10.700;2023-12-20T00:52:57;0.20;;;0.20;;
20527;SDS011;23612;50.894;10.700;2023-12-20T00:55:22;0.22;;;0.22;;
20527;SDS011;23612;50.894;10.700;2023-12-20T00:57:48;0.30;;;0.30;;
20527;SDS011;23612;50.894;10.700;2023-12-20T01:00:13;0.30;;;0.30;;
20527;SDS011;23612;50.894;10.700;2023-12-20T01:02:39;0.20;;;0.20;;
20527;SDS011;23612;50.894;10.700;2023-12-20T01:05:05;0.57;;;0.40;;
20527;SDS011;23612;50.894;10.700;2023-12-20T01:07:32;0.30;;;0.30;;
20527;SDS011;23612;50.894;10.700;2023-12-20T01:09:57;0.30;;;0.30;;
20527;SDS011;23612;50.894;10.700;2023-12-20T01:12:23;0.20;;;0.20;;
20527;SDS011;23612;50.894;10.700;2023-12-20T01:14:48;0.22;;;0.22;;
20527;SDS011;23612;50.894;10.700;2023-12-20T01:17:14;0.22;;;0.22;;
20527;SDS011;23612;50.894;10.700;2023-12-20T01:19:39;0.30;;;0.25;;
20527;SDS011;23612;50.894;10.700;2023-12-20T01:22:05;0.20;;;0.20;;
20527;SDS011;23612;50.894;10.700;2023-12-20T01:24:30;0.20;;;0.20;;
20527;SDS011;23612;50.894;10.700;2023-12-20T01:26:56;0.25;;;0.25;;
20527;SDS011;23612;50.894;10.700;2023-12-20T01:29:21;0.20;;;0.20;;
20527;SDS011;23612;50.894;10.700;2023-12-20T01:31:46;0.20;;;0.20;;
20527;SDS011;23612;50.894;10.700;2023-12-20T01:34:12;0.20;;;0.20;;
20527;SDS011;23612;50.894;10.700;2023-12-20T01:36:37;0.40;;;0.40;;
20527;SDS011;23612;50.894;10.700;2023-12-20T01:39:03;0.28;;;0.28;;
20527;SDS011;23612;50.894;10.700;2023-12-20T01:41:29;0.28;;;0.28;;
20527;SDS011;23612;50.894;10.700;2023-12-20T01:43:54;0.17;;;0.17;;
20527;SDS011;23612;50.894;10.700;2023-12-20T01:46:20;0.10;;;0.10;;
20527;SDS011;23612;50.894;10.700;2023-12-20T01:48:45;0.20;;;0.20;;
20527;SDS011;23612;50.894;10.700;2023-12-20T01:51:12;0.30;;;0.20;;
20527;SDS011;23612;50.894;10.700;2023-12-20T01:53:38;0.15;;;0.15;;
20527;SDS011;23612;50.894;10.700;2023-12-20T01:56:05;0.20;;;0.20;;
20527;SDS011;23612;50.894;10.700;2023-12-20T01:58:30;0.20;;;0.20;;
20527;SDS011;23612;50.894;10.700;2023-12-20T02:00:56;0.20;;;0.20;;
20527;SDS011;23612;50.894;10.700;2023-12-20T02:03:23;0.28;;;0.28;;
20527;SDS011;23612;50.894;10.700;2023-12-20T02:05:49;0.20;;;0.20;;
20527;SDS011;23612;50.894;10.700;2023-12-20T02:08:15;0.20;;;0.20;;
20527;SDS011;23612;50.894;10.700;2023-12-20T02:10:40;0.25;;;0.20;;
20527;SDS011;23612;50.894;10.700;2023-12-20T02:13:07;1.15;;;0.10;;
20527;SDS011;23612;50.894;10.700;2023-12-20T02:15:32;0.20;;;0.20;;
20527;SDS011;23612;50.894;10.700;2023-12-20T02:17:58;0.20;;;0.20;;
20527;SDS011;23612;50.894;10.700;2023-12-20T02:20:24;0.20;;;0.20;;
20527;SDS011;23612;50.894;10.700;2023-12-20T02:22:49;0.13;;;0.13;;
20527;SDS011;23612;50.894;10.700;2023-12-20T02:25:14;0.20;;;0.20;;
20527;SDS011;23612;50.894;10.700;2023-12-20T02:27:40;0.20;;;0.20;;
20527;SDS011;23612;50.894;10.700;2023-12-20T02:30:06;0.20;;;0.20;;
20527;SDS011;23612;50.894;10.700;2023-12-20T02:32:33;0.20;;;0.20;;
20527;SDS011;23612;50.894;10.700;2023-12-20T02:34:59;0.52;;;0.20;;
20527;SDS011;23612;50.894;10.700;2023-12-20T02:37:24;0.20;;;0.20;;
20527;SDS011;23612;50.894;10.700;2023-12-20T02:39:50;0.43;;;0.22;;
20527;SDS011;23612;50.894;10.700;2023-12-20T02:42:15;0.17;;;0.17;;
20527;SDS011;23612;50.894;10.700;2023-12-20T02:44:41;0.13;;;0.13;;
20527;SDS011;23612;50.894;10.700;2023-12-20T02:47:06;0.20;;;0.20;;
20527;SDS011;23612;50.894;10.700;2023-12-20T02:49:32;0.25;;;0.25;;
20527;SDS011;23612;50.894;10.700;2023-12-20T02:51:57;0.20;;;0.20;;
20527;SDS011;23612;50.894;10.700;2023-12-20T02:54:23;0.22;;;0.22;;
20527;SDS011;23612;50.894;10.700;2023-12-20T02:56:48;0.20;;;0.20;;
20527;SDS011;23612;50.894;10.700;2023-12-20T02:59:14;0.15;;;0.15;;
20527;SDS011;23612;50.894;10.700;2023-12-20T03:01:42;0.20;;;0.20;;
20527;SDS011;23612;50.894;10.700;2023-12-20T03:04:09;0.20;;;0.20;;
20527;SDS011;23612;50.894;10.700;2023-12-20T03:06:34;0.28;;;0.20;;
20527;SDS011;23612;50.894;10.700;2023-12-20T03:09:00;0.10;;;0.10;;
20527;SDS011;23612;50.894;10.700;2023-12-20T03:11:28;0.22;;;0.22;;
20527;SDS011;23612;50.894;10.700;2023-12-20T03:13:54;0.20;;;0.20;;
20527;SDS011;23612;50.894;10.700;2023-12-20T03:16:20;0.22;;;0.22;;
20527;SDS011;23612;50.894;10.700;2023-12-20T03:18:45;0.20;;;0.20;;
20527;SDS011;23612;50.894;10.700;2023-12-20T03:21:11;0.28;;;0.28;;
20527;SDS011;23612;50.894;10.700;2023-12-20T03:23:36;0.30;;;0.30;;
20527;SDS011;23612;50.894;10.700;2023-12-20T03:26:02;0.75;;;0.68;;
20527;SDS011;23612;50.894;10.700;2023-12-20T03:28:28;0.40;;;0.40;;
20527;SDS011;23612;50.894;10.700;2023-12-20T03:30:54;0.22;;;0.22;;
20527;SDS011;23612;50.894;10.700;2023-12-20T03:33:19;0.30;;;0.30;;
20527;SDS011;23612;50.894;10.700;2023-12-20T03:35:45;0.63;;;0.50;;
20527;SDS011;23612;50.894;10.700;2023-12-20T03:38:10;0.40;;;0.40;;
20527;SDS011;23612;50.894;10.700;2023-12-20T03:40:36;2.47;;;0.60;;
20527;SDS011;23612;50.894;10.700;2023-12-20T03:43:01;0.40;;;0.40;;
20527;SDS011;23612;50.894;10.700;2023-12-20T03:45:27;0.30;;;0.30;;
20527;SDS011;23612;50.894;10.700;2023-12-20T03:47:52;0.47;;;0.47;;
20527;SDS011;23612;50.894;10.700;2023-12-20T03:50:20;0.40;;;0.40;;
20527;SDS011;23612;50.894;10.700;2023-12-20T03:52:47;1.25;;;0.50;;
20527;SDS011;23612;50.894;10.700;2023-12-20T03:55:12;0.60;;;0.60;;
20527;SDS011;23612;50.894;10.700;2023-12-20T03:57:38;0.63;;;0.63;;
20527;SDS011;23612;50.894;10.700;2023-12-20T04:00:04;1.10;;;1.00;;
20527;SDS011;23612;50.894;10.700;2023-12-20T04:02:30;0.90;;;0.90;;
20527;SDS011;23612;50.894;10.700;2023-12-20T04:04:56;0.95;;;0.95;;
20527;SDS011;23612;50.894;10.700;2023-12-20T04:07:21;1.10;;;1.10;;
20527;SDS011;23612;50.894;10.700;2023-12-20T04:09:47;1.17;;;1.08;;
20527;SDS011;23612;50.894;10.700;2023-12-20T04:12:13;1.20;;;1.20;;
20527;SDS011;23612;50.894;10.700;2023-12-20T04:14:38;1.10;;;1.10;;
20527;SDS011;23612;50.894;10.700;2023-12-20T04:17:04;2.30;;;1.20;;
20527;SDS011;23612;50.894;10.700;2023-12-20T04:19:29;1.30;;;1.20;;
20527;SDS011;23612;50.894;10.700;2023-12-20T04:21:54;1.63;;;1.40;;
20527;SDS011;23612;50.894;10.700;2023-12-20T04:24:20;1.70;;;1.23;;
20527;SDS011;23612;50.894;10.700;2023-12-20T04:26:45;1.70;;;1.60;;
20527;SDS011;23612;50.894;10.700;2023-12-20T04:29:11;1.23;;;1.23;;
20527;SDS011;23612;50.894;10.700;2023-12-20T04:31:37;1.02;;;1.02;;
20527;SDS011;23612;50.894;10.700;2023-12-20T04:34:02;1.55;;;1.45;;
20527;SDS011;23612;50.894;10.700;2023-12-20T04:36:28;1.40;;;1.30;;
20527;SDS011;23612;50.894;10.700;2023-12-20T04:38:54;1.70;;;1.60;;
20527;SDS011;23612;50.894;10.700;2023-12-20T04:41:20;1.85;;;1.75;;
20527;SDS011;23612;50.894;10.700;2023-12-20T04:43:45;1.92;;;1.83;;
20527;SDS011;23612;50.894;10.700;2023-12-20T04:46:11;2.00;;;1.80;;
20527;SDS011;23612;50.894;10.700;2023-12-20T04:48:36;2.17;;;1.98;;
20527;SDS011;23612;50.894;10.700;2023-12-20T04:51:02;2.40;;;2.13;;
20527;SDS011;23612;50.894;10.700;2023-12-20T04:53:27;2.25;;;2.15;;
20527;SDS011;23612;50.894;10.700;2023-12-20T04:55:53;2.60;;;2.20;;
20527;SDS011;23612;50.894;10.700;2023-12-20T04:58:18;2.60;;;2.40;;
20527;SDS011;23612;50.894;10.700;2023-12-20T05:00:44;2.97;;;2.67;;
20527;SDS011;23612;50.894;10.700;2023-12-20T05:03:09;3.50;;;2.47;;
20527;SDS011;23612;50.894;10.700;2023-12-20T05:05:35;2.72;;;2.53;;
20527;SDS011;23612;50.894;10.700;2023-12-20T05:08:01;2.83;;;2.63;;
20527;SDS011;23612;50.894;10.700;2023-12-20T05:10:26;3.15;;;2.70;;
20527;SDS011;23612;50.894;10.700;2023-12-20T05:12:52;3.00;;;2.70;;
20527;SDS011;23612;50.894;10.700;2023-12-20T05:15:18;2.83;;;2.63;;
20527;SDS011;23612;50.894;10.700;2023-12-20T05:17:43;4.47;;;2.97;;
20527;SDS011;23612;50.894;10.700;2023-12-20T05:20:09;3.80;;;3.30;;
20527;SDS011;23612;50.894;10.700;2023-12-20T05:22:35;4.20;;;2.92;;
20527;SDS011;23612;50.894;10.700;2023-12-20T05:25:00;6.47;;;3.72;;
20527;SDS011;23612;50.894;10.700;2023-12-20T05:27:26;4.63;;;3.30;;
20527;SDS011;23612;50.894;10.700;2023-12-20T05:29:51;4.45;;;2.60;;
20527;SDS011;23612;50.894;10.700;2023-12-20T05:32:17;2.08;;;1.88;;
20527;SDS011;23612;50.894;10.700;2023-12-20T05:34:42;3.03;;;1.90;;
20527;SDS011;23612;50.894;10.700;2023-12-20T05:37:08;3.70;;;2.35;;
20527;SDS011;23612;50.894;10.700;2023-12-20T05:39:33;6.53;;;3.78;;
20527;SDS011;23612;50.894;10.700;2023-12-20T05:41:59;5.10;;;4.00;;
20527;SDS011;23612;50.894;10.700;2023-12-20T05:44:24;6.07;;;4.68;;
20527;SDS011;23612;50.894;10.700;2023-12-20T05:46:50;6.25;;;3.10;;
20527;SDS011;23612;50.894;10.700;2023-12-20T05:49:15;4.00;;;2.80;;
20527;SDS011;23612;50.894;10.700;2023-12-20T05:51:41;5.72;;;3.72;;
20527;SDS011;23612;50.894;10.700;2023-12-20T05:54:07;5.22;;;3.47;;
20527;SDS011;23612;50.894;10.700;2023-12-20T05:56:34;7.53;;;3.40;;
20527;SDS011;23612;50.894;10.700;2023-12-20T05:58:59;8.10;;;2.85;;
20527;SDS011;23612;50.894;10.700;2023-12-20T06:01:25;5.65;;;2.85;;
20527;SDS011;23612;50.894;10.700;2023-12-20T06:03:50;7.18;;;2.40;;
20527;SDS011;23612;50.894;10.700;2023-12-20T06:06:15;6.25;;;2.83;;
20527;SDS011;23612;50.894;10.700;2023-12-20T06:08:42;4.55;;;2.97;;
20527;SDS011;23612;50.894;10.700;2023-12-20T06:11:08;4.35;;;3.08;;
20527;SDS011;23612;50.894;10.700;2023-12-20T06:13:34;3.55;;;2.88;;
20527;SDS011;23612;50.894;10.700;2023-12-20T06:16:00;6.80;;;3.55;;
20527;SDS011;23612;50.894;10.700;2023-12-20T06:18:26;5.25;;;3.97;;
20527;SDS011;23612;50.894;10.700;2023-12-20T06:20:51;7.70;;;3.80;;
20527;SDS011;23612;50.894;10.700;2023-12-20T06:23:17;6.88;;;3.67;;
20527;SDS011;23612;50.894;10.700;2023-12-20T06:25:42;5.90;;;3.28;;
20527;SDS011;23612;50.894;10.700;2023-12-20T06:28:08;5.57;;;4.07;;
20527;SDS011;23612;50.894;10.700;2023-12-20T06:30:35;7.75;;;4.07;;
20527;SDS011;23612;50.894;10.700;2023-12-20T06:33:01;4.50;;;3.40;;
20527;SDS011;23612;50.894;10.700;2023-12-20T06:35:26;3.58;;;2.85;;
20527;SDS011;23612;50.894;10.700;2023-12-20T06:37:52;5.25;;;2.97;;
20527;SDS011;23612;50.894;10.700;2023-12-20T06:40:18;7.00;;;3.20;;
20527;SDS011;23612;50.894;10.700;2023-12-20T06:42:43;5.32;;;2.63;;
20527;SDS011;23612;50.894;10.700;2023-12-20T06:45:09;3.00;;;2.42;;
20527;SDS011;23612;50.894;10.700;2023-12-20T06:47:35;5.22;;;2.53;;
20527;SDS011;23612;50.894;10.700;2023-12-20T06:50:00;6.40;;;3.33;;
20527;SDS011;23612;50.894;10.700;2023-12-20T06:52:26;4.88;;;3.35;;
20527;SDS011;23612;50.894;10.700;2023-12-20T06:54:51;6.93;;;3.45;;
20527;SDS011;23612;50.894;10.700;2023-12-20T06:57:17;8.38;;;4.75;;
20527;SDS011;23612;50.894;10.700;2023-12-20T06:59:44;9.30;;;4.80;;
20527;SDS011;23612;50.894;10.700;2023-12-20T07:02:10;6.00;;;3.15;;
20527;SDS011;23612;50.894;10.700;2023-12-20T07:04:39;6.10;;;3.50;;
20527;SDS011;23612;50.894;10.700;2023-12-20T07:07:05;5.75;;;3.22;;
20527;SDS011;23612;50.894;10.700;2023-12-20T07:09:30;8.55;;;3.40;;
20527;SDS011;23612;50.894;10.700;2023-12-20T07:11:56;7.28;;;4.57;;
20527;SDS011;23612;50.894;10.700;2023-12-20T07:14:21;6.13;;;3.50;;
20527;SDS011;23612;50.894;10.700;2023-12-20T07:16:47;12.73;;;5.10;;
20527;SDS011;23612;50.894;10.700;2023-12-20T07:19:12;7.55;;;3.67;;
20527;SDS011;23612;50.894;10.700;2023-12-20T07:21:38;6.93;;;4.10;;
20527;SDS011;23612;50.894;10.700;2023-12-20T07:24:03;9.80;;;4.88;;
20527;SDS011;23612;50.894;10.700;2023-12-20T07:26:29;5.57;;;3.80;;
20527;SDS011;23612;50.894;10.700;2023-12-20T07:28:54;9.98;;;4.85;;
20527;SDS011;23612;50.894;10.700;2023-12-20T07:31:20;11.20;;;5.32;;
20527;SDS011;23612;50.894;10.700;2023-12-20T07:33:45;7.68;;;5.82;;
20527;SDS011;23612;50.894;10.700;2023-12-20T07:36:11;7.57;;;4.15;;
20527;SDS011;23612;50.894;10.700;2023-12-20T07:38:37;7.00;;;4.15;;
20527;SDS011;23612;50.894;10.700;2023-12-20T07:41:02;7.72;;;4.32;;
20527;SDS011;23612;50.894;10.700;2023-12-20T07:43:28;7.05;;;4.00;;
20527;SDS011;23612;50.894;10.700;2023-12-20T07:45:53;7.20;;;3.90;;
20527;SDS011;23612;50.894;10.700;2023-12-20T07:48:19;9.15;;;4.97;;
20527;SDS011;23612;50.894;10.700;2023-12-20T07:50:44;9.70;;;4.45;;
20527;SDS011;23612;50.894;10.700;2023-12-20T07:53:10;9.13;;;4.35;;
20527;SDS011;23612;50.894;10.700;2023-12-20T07:55:35;8.95;;;3.90;;
20527;SDS011;23612;50.894;10.700;2023-12-20T07:58:01;8.40;;;4.10;;
20527;SDS011;23612;50.894;10.700;2023-12-20T08:00:27;7.38;;;3.92;;
20527;SDS011;23612;50.894;10.700;2023-12-20T08:02:52;5.88;;;3.38;;
20527;SDS011;23612;50.894;10.700;2023-12-20T08:05:18;6.57;;;3.58;;
20527;SDS011;23612;50.894;10.700;2023-12-20T08:07:43;11.68;;;3.63;;
20527;SDS011;23612;50.894;10.700;2023-12-20T08:10:09;6.57;;;3.33;;
20527;SDS011;23612;50.894;10.700;2023-12-20T08:12:35;7.00;;;2.88;;
20527;SDS011;23612;50.894;10.700;2023-12-20T08:15:01;8.90;;;3.58;;
20527;SDS011;23612;50.894;10.700;2023-12-20T08:17:27;6.55;;;3.20;;
20527;SDS011;23612;50.894;10.700;2023-12-20T08:19:52;11.48;;;3.50;;
20527;SDS011;23612;50.894;10.700;2023-12-20T08:22:18;6.45;;;2.90;;
20527;SDS011;23612;50.894;10.700;2023-12-20T08:24:43;9.25;;;3.00;;
20527;SDS011;23612;50.894;10.700;2023-12-20T08:27:08;4.43;;;2.58;;
20527;SDS011;23612;50.894;10.700;2023-12-20T08:29:34;8.18;;;3.00;;
20527;SDS011;23612;50.894;10.700;2023-12-20T08:32:00;6.72;;;3.28;;
20527;SDS011;23612;50.894;10.700;2023-12-20T08:34:26;8.23;;;3.08;;
20527;SDS011;23612;50.894;10.700;2023-12-20T08:36:52;9.15;;;3.05;;
20527;SDS011;23612;50.894;10.700;2023-12-20T08:39:17;7.15;;;2.92;;
20527;SDS011;23612;50.894;10.700;2023-12-20T08:41:43;5.00;;;2.40;;
20527;SDS011;23612;50.894;10.700;2023-12-20T08:44:08;4.97;;;2.30;;
20527;SDS011;23612;50.894;10.700;2023-12-20T08:46:34;7.95;;;2.30;;
20527;SDS011;23612;50.894;10.700;2023-12-20T08:49:00;5.72;;;2.75;;
20527;SDS011;23612;50.894;10.700;2023-12-20T08:51:26;5.93;;;2.22;;
20527;SDS011;23612;50.894;10.700;2023-12-20T08:53:52;6.97;;;2.58;;
20527;SDS011;23612;50.894;10.700;2023-12-20T08:56:18;9.77;;;2.38;;
20527;SDS011;23612;50.894;10.700;2023-12-20T08:58:44;5.95;;;2.60;;
20527;SDS011;23612;50.894;10.700;2023-12-20T09:01:11;7.72;;;2.80;;
20527;SDS011;23612;50.894;10.700;2023-12-20T09:03:36;5.47;;;2.72;;
20527;SDS011;23612;50.894;10.700;2023-12-20T09:06:01;6.70;;;3.05;;
20527;SDS011;23612;50.894;10.700;2023-12-20T09:08:28;8.70;;;2.58;;
20527;SDS011;23612;50.894;10.700;2023-12-20T09:10:53;5.10;;;3.03;;
20527;SDS011;23612;50.894;10.700;2023-12-20T09:13:19;6.65;;;3.13;;
20527;SDS011;23612;50.894;10.700;2023-12-20T09:15:45;5.20;;;2.45;;
20527;SDS011;23612;50.894;10.700;2023-12-20T09:18:11;7.28;;;3.28;;
20527;SDS011;23612;50.894;10.700;2023-12-20T09:20:36;13.25;;;3.15;;
20527;SDS011;23612;50.894;10.700;2023-12-20T09:23:02;7.80;;;2.38;;
20527;SDS011;23612;50.894;10.700;2023-12-20T09:25:27;12.98;;;3.05;;
20527;SDS011;23612;50.894;10.700;2023-12-20T09:27:54;6.28;;;2.60;;
20527;SDS011;23612;50.894;10.700;2023-12-20T09:30:19;6.38;;;2.58;;
20527;SDS011;23612;50.894;10.700;2023-12-20T09:32:45;6.43;;;2.90;;
20527;SDS011;23612;50.894;10.700;2023-12-20T09:35:10;6.13;;;2.92;;
20527;SDS011;23612;50.894;10.700;2023-12-20T09:37:36;9.85;;;3.05;;
20527;SDS011;23612;50.894;10.700;2023-12-20T09:40:02;6.93;;;2.90;;
20527;SDS011;23612;50.894;10.700;2023-12-20T09:42:30;6.28;;;2.42;;
20527;SDS011;23612;50.894;10.700;2023-12-20T09:45:05;8.48;;;2.45;;
20527;SDS011;23612;50.894;10.700;2023-12-20T09:47:35;10.43;;;3.03;;
20527;SDS011;23612;50.894;10.700;2023-12-20T09:50:00;9.82;;;2.92;;
20527;SDS011;23612;50.894;10.700;2023-12-20T09:52:27;14.20;;;3.00;;
20527;SDS011;23612;50.894;10.700;2023-12-20T09:54:54;12.10;;;2.75;;
20527;SDS011;23612;50.894;10.700;2023-12-20T09:57:22;9.90;;;2.70;;
20527;SDS011;23612;50.894;10.700;2023-12-20T09:59:47;8.80;;;3.72;;
20527;SDS011;23612;50.894;10.700;2023-12-20T10:02:13;8.65;;;2.60;;
20527;SDS011;23612;50.894;10.700;2023-12-20T10:04:41;10.20;;;3.85;;
20527;SDS011;23612;50.894;10.700;2023-12-20T10:07:11;12.13;;;3.40;;
20527;SDS011;23612;50.894;10.700;2023-12-20T10:09:37;8.38;;;3.70;;
20527;SDS011;23612;50.894;10.700;2023-12-20T10:12:03;10.27;;;4.05;;
20527;SDS011;23612;50.894;10.700;2023-12-20T10:14:30;5.50;;;2.63;;
20527;SDS011;23612;50.894;10.700;2023-12-20T10:17:03;8.07;;;2.97;;
20527;SDS011;23612;50.894;10.700;2023-12-20T10:19:29;7.57;;;2.65;;
20527;SDS011;23612;50.894;10.700;2023-12-20T10:21:55;4.55;;;2.65;;
20527;SDS011;23612;50.894;10.700;2023-12-20T10:24:20;3.17;;;2.60;;
20527;SDS011;23612;50.894;10.700;2023-12-20T10:26:46;10.15;;;2.70;;
20527;SDS011;23612;50.894;10.700;2023-12-20T10:29:11;3.33;;;2.25;;
20527;SDS011;23612;50.894;10.700;2023-12-20T10:31:37;9.32;;;2.50;;
20527;SDS011;23612;50.894;10.700;2023-12-20T10:34:05;4.97;;;2.55;;
20527;SDS011;23612;50.894;10.700;2023-12-20T10:36:31;7.32;;;3.08;;
20527;SDS011;23612;50.894;10.700;2023-12-20T10:38:58;2.85;;;1.65;;
20527;SDS011;23612;50.894;10.700;2023-12-20T10:41:25;4.28;;;2.30;;
20527;SDS011;23612;50.894;10.700;2023-12-20T10:43:56;7.32;;;2.45;;
20527;SDS011;23612;50.894;10.700;2023-12-20T10:46:24;3.28;;;2.40;;
20527;SDS011;23612;50.894;10.700;2023-12-20T10:48:51;7.65;;;2.90;;
20527;SDS011;23612;50.894;10.700;2023-12-20T10:51:19;6.18;;;3.58;;
20527;SDS011;23612;50.894;10.700;2023-12-20T10:53:46;8.68;;;2.65;;
20527;SDS011;23612;50.894;10.700;2023-12-20T10:56:15;7.68;;;2.88;;
20527;SDS011;23612;50.894;10.700;2023-12-20T10:58:48;6.55;;;1.98;;
20527;SDS011;23612;50.894;10.700;2023-12-20T11:01:14;11.90;;;2.97;;
20527;SDS011;23612;50.894;10.700;2023-12-20T11:03:46;11.98;;;5.18;;
20527;SDS011;23612;50.894;10.700;2023-12-20T11:06:26;6.80;;;2.53;;
20527;SDS011;23612;50.894;10.700;2023-12-20T11:14:29;9.50;;;3.60;;
20527;SDS011;23612;50.894;10.700;2023-12-20T11:20:21;10.02;;;2.83;;
20527;SDS011;23612;50.894;10.700;2023-12-20T11:22:31;15.38;;;6.28;;
20527;SDS011;23612;50.894;10.700;2023-12-20T11:24:58;13.10;;;5.53;;
20527;SDS011;23612;50.894;10.700;2023-12-20T11:27:35;8.85;;;3.92;;
20527;SDS011;23612;50.894;10.700;2023-12-20T11:30:05;11.45;;;3.75;;
20527;SDS011;23612;50.894;10.700;2023-12-20T11:32:31;8.05;;;3.30;;
20527;SDS011;23612;50.894;10.700;2023-12-20T11:35:20;7.93;;;2.60;;
20527;SDS011;23612;50.894;10.700;2023-12-20T11:37:45;8.73;;;3.95;;
20527;SDS011;23612;50.894;10.700;2023-12-20T11:40:17;4.85;;;3.13;;
20527;SDS011;23612;50.894;10.700;2023-12-20T11:42:43;10.52;;;5.30;;
20527;SDS011;23612;50.894;10.700;2023-12-20T11:45:17;7.72;;;3.63;;
20527;SDS011;23612;50.894;10.700;2023-12-20T11:47:46;16.02;;;4.63;;
20527;SDS011;23612;50.894;10.700;2023-12-20T11:50:14;6.53;;;3.80;;
20527;SDS011;23612;50.894;10.700;2023-12-20T11:52:40;12.95;;;4.25;;
20527;SDS011;23612;50.894;10.700;2023-12-20T11:55:06;9.30;;;4.32;;
20527;SDS011;23612;50.894;10.700;2023-12-20T11:57:32;13.75;;;4.90;;
20527;SDS011;23612;50.894;10.700;2023-12-20T11:59:58;13.30;;;3.75;;
20527;SDS011;23612;50.894;10.700;2023-12-20T12:02:23;9.93;;;4.13;;
20527;SDS011;23612;50.894;10.700;2023-12-20T12:04:49;9.15;;;5.03;;
20527;SDS011;23612;50.894;10.700;2023-12-20T12:07:15;8.70;;;4.68;;
20527;SDS011;23612;50.894;10.700;2023-12-20T12:09:41;19.92;;;3.47;;
20527;SDS011;23612;50.894;10.700;2023-12-20T12:12:08;11.23;;;3.15;;
20527;SDS011;23612;50.894;10.700;2023-12-20T12:14:33;11.57;;;4.78;;
20527;SDS011;23612;50.894;10.700;2023-12-20T12:17:01;12.00;;;3.38;;
20527;SDS011;23612;50.894;10.700;2023-12-20T12:19:27;22.42;;;9.43;;
20527;SDS011;23612;50.894;10.700;2023-12-20T12:22:06;7.00;;;3.35;;
20527;SDS011;23612;50.894;10.700;2023-12-20T12:24:35;7.90;;;3.10;;
20527;SDS011;23612;50.894;10.700;2023-12-20T12:27:01;10.90;;;4.25;;
20527;SDS011;23612;50.894;10.700;2023-12-20T12:29:27;10.68;;;4.43;;
20527;SDS011;23612;50.894;10.700;2023-12-20T12:31:52;13.20;;;3.97;;
20527;SDS011;23612;50.894;10.700;2023-12-20T12:34:18;17.92;;;6.63;;
20527;SDS011;23612;50.894;10.700;2023-12-20T12:36:43;18.08;;;6.32;;
20527;SDS011;23612;50.894;10.700;2023-12-20T12:39:13;17.20;;;5.28;;
20527;SDS011;23612;50.894;10.700;2023-12-20T12:41:42;12.00;;;5.22;;
20527;SDS011;23612;50.894;10.700;2023-12-20T12:44:08;11.60;;;4.55;;
20527;SDS011;23612;50.894;10.700;2023-12-20T12:46:33;5.95;;;2.70;;
20527;SDS011;23612;50.894;10.700;2023-12-20T12:48:59;6.20;;;2.60;;
20527;SDS011;23612;50.894;10.700;2023-12-20T12:51:24;5.60;;;2.70;;
20527;SDS011;23612;50.894;10.700;2023-12-20T12:53:50;8.05;;;3.10;;
20527;SDS011;23612;50.894;10.700;2023-12-20T12:56:15;6.00;;;3.35;;
20527;SDS011;23612;50.894;10.700;2023-12-20T12:58:42;10.15;;;4.57;;
20527;SDS011;23612;50.894;10.700;2023-12-20T13:01:07;6.15;;;2.20;;
20527;SDS011;23612;50.894;10.700;2023-12-20T13:03:33;5.65;;;3.65;;
20527;SDS011;23612;50.894;10.700;2023-12-20T13:05:59;4.13;;;2.85;;
20527;SDS011;23612;50.894;10.700;2023-12-20T13:08:25;5.95;;;2.53;;
20527;SDS011;23612;50.894;10.700;2023-12-20T13:10:51;4.78;;;2.30;;
20527;SDS011;23612;50.894;10.700;2023-12-20T13:13:16;7.72;;;2.65;;
20527;SDS011;23612;50.894;10.700;2023-12-20T13:15:42;4.50;;;1.92;;
20527;SDS011;23612;50.894;10.700;2023-12-20T13:18:07;4.45;;;2.10;;
20527;SDS011;23612;50.894;10.700;2023-12-20T13:20:33;2.88;;;1.60;;
20527;SDS011;23612;50.894;10.700;2023-12-20T13:22:58;4.25;;;1.80;;
20527;SDS011;23612;50.894;10.700;2023-12-20T13:25:24;7.78;;;1.98;;
20527;SDS011;23612;50.894;10.700;2023-12-20T13:27:49;4.22;;;1.85;;
20527;SDS011;23612;50.894;10.700;2023-12-20T13:30:16;6.40;;;2.35;;
20527;SDS011;23612;50.894;10.700;2023-12-20T13:32:42;5.65;;;2.00;;
20527;SDS011;23612;50.894;10.700;2023-12-20T13:35:07;8.05;;;1.98;;
20527;SDS011;23612;50.894;10.700;2023-12-20T13:37:33;3.03;;;1.80;;
20527;SDS011;23612;50.894;10.700;2023-12-20T13:39:59;6.00;;;2.17;;
20527;SDS011;23612;50.894;10.700;2023-12-20T13:42:25;7.70;;;2.25;;
20527;SDS011;23612;50.894;10.700;2023-12-20T13:44:52;5.30;;;2.30;;
20527;SDS011;23612;50.894;10.700;2023-12-20T13:47:18;9.20;;;2.80;;
20527;SDS011;23612;50.894;10.700;2023-12-20T13:49:44;4.43;;;2.50;;
20527;SDS011;23612;50.894;10.700;2023-12-20T13:52:10;8.02;;;2.22;;
20527;SDS011;23612;50.894;10.700;2023-12-20T13:54:36;5.95;;;2.00;;
20527;SDS011;23612;50.894;10.700;2023-12-20T13:57:02;19.52;;;3.70;;
20527;SDS011;23612;50.894;10.700;2023-12-20T13:59:28;9.88;;;2.85;;
20527;SDS011;23612;50.894;10.700;2023-12-20T14:01:53;6.82;;;2.40;;
20527;SDS011;23612;50.894;10.700;2023-12-20T14:04:19;6.22;;;2.35;;
20527;SDS011;23612;50.894;10.700;2023-12-20T14:06:46;16.58;;;6.20;;
20527;SDS011;23612;50.894;10.700;2023-12-20T14:09:12;5.10;;;2.92;;
20527;SDS011;23612;50.894;10.700;2023-12-20T14:11:37;5.72;;;2.38;;
20527;SDS011;23612;50.894;10.700;2023-12-20T14:14:06;4.50;;;2.05;;
20527;SDS011;23612;50.894;10.700;2023-12-20T14:16:32;4.70;;;2.67;;
20527;SDS011;23612;50.894;10.700;2023-12-20T14:18:58;6.47;;;2.03;;
20527;SDS011;23612;50.894;10.700;2023-12-20T14:21:24;5.55;;;2.00;;
20527;SDS011;23612;50.894;10.700;2023-12-20T14:23:49;5.70;;;1.90;;
20527;SDS011;23612;50.894;10.700;2023-12-20T14:26:15;11.75;;;3.97;;
20527;SDS011;23612;50.894;10.700;2023-12-20T14:28:41;4.82;;;2.25;;
20527;SDS011;23612;50.894;10.700;2023-12-20T14:31:07;13.32;;;3.72;;
20527;SDS011;23612;50.894;10.700;2023-12-20T14:33:34;5.70;;;2.20;;
20527;SDS011;23612;50.894;10.700;2023-12-20T14:36:00;7.43;;;3.50;;